1865 Tropical Storm NOT_NAMED (1865282N19289)


IBTrACS version v04r00. Visit IBTrACS website for data access.
Please direct all questions to the IBTrACS Q and A forum

Storm track - Intensity - Wind Radii - Intensity Data - Source Data - All data

Summary Information

Storm ID 1865282N19289
Start Oct 8 12Z
Max Intensity 60 kt (Oct 15 00Z)
End Oct 15 12Z
ATCF IDs
Track status Best track data.

Storm track plot

Map of storm track

Intensity plots

Map of storm track

Radial wind information

No radial wind information for this storm


Position and Intensity Table

BASIN ISO_TIME_________ NATURE LAT LON MLC WIND
degrees north degrees east kts
NA 1865-10-08 12:00:00 TS 18.80 -70.60 30
NA 15:00:00 TS 18.96 -70.60 30
NA 18:00:00 TS 19.10 -70.60 30
NA 21:00:00 TS 19.20 -70.61 32
NA 1865-10-09 00:00:00 TS 19.30 -70.60 35
NA 03:00:00 TS 19.45 -70.55 35
NA 06:00:00 TS 19.60 -70.50 35
NA 09:00:00 TS 19.68 -70.51 35
NA 12:00:00 TS 19.80 -70.50 35
NA 15:00:00 TS 20.08 -70.44 35
NA 18:00:00 TS 20.40 -70.30 35
NA 21:00:00 TS 20.65 -70.09 35
NA 1865-10-10 00:00:00 TS 20.90 -69.80 35
NA 03:00:00 TS 21.20 -69.47 35
NA 06:00:00 TS 21.50 -69.10 35
NA 09:00:00 TS 21.73 -68.74 35
NA 12:00:00 TS 22.00 -68.40 35
NA 15:00:00 TS 22.38 -68.08 35
NA 18:00:00 TS 22.80 -67.80 35
NA 21:00:00 TS 23.20 -67.55 37
NA 1865-10-11 00:00:00 TS 23.60 -67.30 40
NA 03:00:00 TS 24.00 -67.00 40
NA 06:00:00 TS 24.40 -66.70 40
NA 09:00:00 TS 24.81 -66.46 40
NA 12:00:00 TS 25.20 -66.20 40
NA 15:00:00 TS 25.56 -65.86 40
NA 18:00:00 TS 25.90 -65.50 40
NA 21:00:00 TS 26.26 -65.15 40
NA 1865-10-12 00:00:00 TS 26.60 -64.80 40
NA 03:00:00 TS 26.89 -64.45 42
NA 06:00:00 TS 27.20 -64.10 45
NA 09:00:00 TS 27.55 -63.88 45
NA 12:00:00 TS 28.00 -63.40 45
NA 15:00:00 TS 28.58 -62.34 45
NA 18:00:00 TS 29.20 -61.00 45
NA 21:00:00 TS 29.76 -59.76 45
NA 1865-10-13 00:00:00 TS 30.30 -58.50 45
NA 03:00:00 TS 30.85 -57.25 45
NA 06:00:00 TS 31.40 -56.00 45
NA 09:00:00 TS 31.93 -54.74 45
NA 12:00:00 TS 32.50 -53.50 45
NA 15:00:00 TS 33.14 -52.29 45
NA 18:00:00 TS 33.80 -51.10 45
NA 21:00:00 TS 34.40 -49.90 47
NA 1865-10-14 00:00:00 ET 35.00 -48.70 50
NA 03:00:00 ET 35.65 -47.49 50
NA 06:00:00 ET 36.30 -46.30 50
NA 09:00:00 ET 36.81 -45.26 50
NA 12:00:00 ET 37.50 -44.00 50
NA 15:00:00 ET 38.60 -42.27 52
NA 18:00:00 ET 39.90 -40.00 55
NA 21:00:00 ET 41.11 -37.11 57
NA 1865-10-15 00:00:00 ET 42.30 -34.00 60
NA 03:00:00 ET 43.50 -31.20 60
NA 06:00:00 ET 44.70 -28.50 60
NA 09:00:00 ET 45.87 -25.79 60
NA 12:00:00 ET 47.00 -23.00 60

Source Information

Agency Information
USA
TOKYO
CMA
HKO
NEWDELHI
REUNION
BOM
NADI
WELLINGTON
DS824
TD9636
TD9635
NEUMANN
MLC

All available IBTrACS Data

SEASON BASIN SUBBASIN ISO_TIME_________ NATURE LAT LON DIST2LAND LANDFALL IFLAG USA SSHS MLC LAT MLC LON MLC CLASS MLC WIND STORM SPEED STORM DIR
Year degrees north degrees east km km 1 degrees north degrees east kts kts degrees
1865 NA NA 1865-10-08 12:00:00 TS 18.80 -70.60 0 0 _____________O -1 18.80 -70.60 TD 30 3 5
1865 NA NA 15:00:00 TS 18.96 -70.60 0 0 _____________P -1 18.96 -70.60 TD 30 3 0
1865 NA NA 18:00:00 TS 19.10 -70.60 0 0 _____________O -1 19.10 -70.60 TD 30 2 0
1865 NA NA 21:00:00 TS 19.20 -70.61 0 0 _____________P -1 19.20 -70.61 TD 32 2 8
1865 NA NA 1865-10-09 00:00:00 TS 19.30 -70.60 0 0 _____________O -1 19.30 -70.60 TS 35 3 13
1865 NA NA 03:00:00 TS 19.45 -70.55 0 0 _____________P -1 19.45 -70.55 TS 35 3 17
1865 NA NA 06:00:00 TS 19.60 -70.50 0 0 _____________O -1 19.60 -70.50 TS 35 2 10
1865 NA NA 09:00:00 TS 19.68 -70.51 0 0 _____________P -1 19.68 -70.51 TS 35 2 8
1865 NA NA 12:00:00 TS 19.80 -70.50 10 10 _____________O -1 19.80 -70.50 TS 35 4 9
1865 NA NA 15:00:00 TS 20.08 -70.44 39 39 _____________P -1 20.08 -70.44 TS 35 6 18
1865 NA NA 18:00:00 TS 20.40 -70.30 74 74 _____________O -1 20.40 -70.30 TS 35 7 30
1865 NA NA 21:00:00 TS 20.65 -70.09 103 103 _____________P -1 20.65 -70.09 TS 35 7 43
1865 NA NA 1865-10-10 00:00:00 TS 20.90 -69.80 146 146 _____________O -1 20.90 -69.80 TS 35 8 47
1865 NA NA 03:00:00 TS 21.20 -69.47 186 186 _____________P -1 21.20 -69.47 TS 35 9 47
1865 NA NA 06:00:00 TS 21.50 -69.10 232 232 _____________O -1 21.50 -69.10 TS 35 9 52
1865 NA NA 09:00:00 TS 21.73 -68.74 271 271 _____________P -1 21.73 -68.74 TS 35 8 52
1865 NA NA 12:00:00 TS 22.00 -68.40 315 315 _____________O -1 22.00 -68.40 TS 35 9 43
1865 NA NA 15:00:00 TS 22.38 -68.08 368 368 _____________P -1 22.38 -68.08 TS 35 10 35
1865 NA NA 18:00:00 TS 22.80 -67.80 421 421 _____________O -1 22.80 -67.80 TS 35 10 31
1865 NA NA 21:00:00 TS 23.20 -67.55 474 474 _____________P -1 23.20 -67.55 TS 37 9 30
1865 NA NA 1865-10-11 00:00:00 TS 23.60 -67.30 523 523 _____________O -1 23.60 -67.30 TS 40 9 32
1865 NA NA 03:00:00 TS 24.00 -67.00 576 576 _____________P -1 24.00 -67.00 TS 40 10 34
1865 NA NA 06:00:00 TS 24.40 -66.70 630 630 _____________O -1 24.40 -66.70 TS 40 10 31
1865 NA NA 09:00:00 TS 24.81 -66.46 679 679 _____________P -1 24.81 -66.46 TS 40 9 30
1865 NA NA 12:00:00 TS 25.20 -66.20 732 732 _____________O -1 25.20 -66.20 TS 40 9 36
1865 NA NA 15:00:00 TS 25.56 -65.86 786 786 _____________P -1 25.56 -65.86 TS 40 9 42
1865 NA NA 18:00:00 TS 25.90 -65.50 834 834 _____________O -1 25.90 -65.50 TS 40 10 43
1865 NA NA 21:00:00 TS 26.26 -65.15 884 884 _____________P -1 26.26 -65.15 TS 40 9 42
1865 NA NA 1865-10-12 00:00:00 TS 26.60 -64.80 920 920 _____________O -1 26.60 -64.80 TS 40 9 45
1865 NA NA 03:00:00 TS 26.89 -64.45 958 958 _____________P -1 26.89 -64.45 TS 42 9 46
1865 NA NA 06:00:00 TS 27.20 -64.10 995 995 _____________O -1 27.20 -64.10 TS 45 8 38
1865 NA NA 09:00:00 TS 27.55 -63.88 1042 1042 _____________P -1 27.55 -63.88 TS 45 10 38
1865 NA NA 12:00:00 TS 28.00 -63.40 1096 1096 _____________O -1 28.00 -63.40 TS 45 17 53
1865 NA NA 15:00:00 TS 28.58 -62.34 1188 1188 _____________P -1 28.58 -62.34 TS 45 24 60
1865 NA NA 18:00:00 TS 29.20 -61.00 1294 1294 _____________O -1 29.20 -61.00 TS 45 25 62
1865 NA NA 21:00:00 TS 29.76 -59.76 1402 1402 _____________P -1 29.76 -59.76 TS 45 24 63
1865 NA NA 1865-10-13 00:00:00 TS 30.30 -58.50 1510 1510 _____________O -1 30.30 -58.50 TS 45 24 63
1865 NA NA 03:00:00 TS 30.85 -57.25 1583 1567 _____________P -1 30.85 -57.25 TS 45 24 63
1865 NA NA 06:00:00 TS 31.40 -56.00 1574 1569 _____________O -1 31.40 -56.00 TS 45 24 63
1865 NA NA 09:00:00 TS 31.93 -54.74 1580 1553 _____________P -1 31.93 -54.74 TS 45 24 63
1865 NA NA 12:00:00 TS 32.50 -53.50 1556 1503 _____________O -1 32.50 -53.50 TS 45 24 60
1865 NA NA 15:00:00 TS 33.14 -52.29 1504 1434 _____________P -1 33.14 -52.29 TS 45 24 57
1865 NA NA 18:00:00 TS 33.80 -51.10 1435 1383 _____________O -1 33.80 -51.10 TS 45 24 58
1865 NA NA 21:00:00 TS 34.40 -49.90 1385 1341 _____________P -1 34.40 -49.90 TS 47 23 59
1865 NA NA 1865-10-14 00:00:00 ET 35.00 -48.70 1344 1309 _____________O -1 35.00 -48.70 EX 50 23 58
1865 NA NA 03:00:00 ET 35.65 -47.49 1312 1276 _____________P -1 35.65 -47.49 EX 50 23 56
1865 NA NA 06:00:00 ET 36.30 -46.30 1279 1266 _____________O -1 36.30 -46.30 EX 50 21 57
1865 NA NA 09:00:00 ET 36.81 -45.26 1269 1257 _____________P -1 36.81 -45.26 EX 50 22 57
1865 NA NA 12:00:00 ET 37.50 -44.00 1262 1252 _____________O -1 37.50 -44.00 EX 50 30 53
1865 NA NA 15:00:00 ET 38.60 -42.27 1255 1252 _____________P -1 38.60 -42.27 EX 52 39 52
1865 NA NA 18:00:00 ET 39.90 -40.00 1295 1294 _____________O -1 39.90 -40.00 EX 55 47 58
1865 NA NA 21:00:00 ET 41.11 -37.11 1414 1414 _____________P -1 41.11 -37.11 EX 57 51 62
1865 NA NA 1865-10-15 00:00:00 ET 42.30 -34.00 1564 1564 _____________O -1 42.30 -34.00 EX 60 50 61
1865 NA NA 03:00:00 ET 43.50 -31.20 1713 1549 _____________P -1 43.50 -31.20 EX 60 46 59
1865 NA NA 06:00:00 ET 44.70 -28.50 1541 1307 _____________O -1 44.70 -28.50 EX 60 45 58
1865 NA NA 09:00:00 ET 45.87 -25.79 1295 1068 _____________P -1 45.87 -25.79 EX 60 45 59
1865 NA NA 12:00:00 ET 47.00 -23.00 1050 _____________O -1 47.00 -23.00 EX 60 44 59